sensor_id;sensor_type;location;lat;lon;timestamp;temperature;humidity
25352;DHT22;13304;48.464;8.712;2022-09-03T00:00:32;20.90;72.00
25352;DHT22;13304;48.464;8.712;2022-09-03T00:03:07;20.90;71.40
25352;DHT22;13304;48.464;8.712;2022-09-03T00:08:27;20.90;71.70
25352;DHT22;13304;48.464;8.712;2022-09-03T00:11:18;20.90;71.50
25352;DHT22;13304;48.464;8.712;2022-09-03T00:14:02;20.90;72.00
25352;DHT22;13304;48.464;8.712;2022-09-03T00:16:56;20.80;71.80
25352;DHT22;13304;48.464;8.712;2022-09-03T00:19:23;20.80;72.00
25352;DHT22;13304;48.464;8.712;2022-09-03T00:22:14;20.80;72.10
25352;DHT22;13304;48.464;8.712;2022-09-03T00:24:40;20.80;72.10
25352;DHT22;13304;48.464;8.712;2022-09-03T00:27:12;20.80;72.40
25352;DHT22;13304;48.464;8.712;2022-09-03T00:29:45;20.70;73.50
25352;DHT22;13304;48.464;8.712;2022-09-03T00:32:17;20.70;73.60
25352;DHT22;13304;48.464;8.712;2022-09-03T00:34:48;20.70;72.80
25352;DHT22;13304;48.464;8.712;2022-09-03T00:37:15;20.60;72.90
25352;DHT22;13304;48.464;8.712;2022-09-03T00:39:41;20.60;72.90
25352;DHT22;13304;48.464;8.712;2022-09-03T01:01:35;20.50;74.20
25352;DHT22;13304;48.464;8.712;2022-09-03T01:04:42;20.40;74.00
25352;DHT22;13304;48.464;8.712;2022-09-03T01:09:54;20.40;74.00
25352;DHT22;13304;48.464;8.712;2022-09-03T01:18:26;20.30;74.20
25352;DHT22;13304;48.464;8.712;2022-09-03T01:21:10;20.20;74.80
25352;DHT22;13304;48.464;8.712;2022-09-03T01:26:51;20.30;74.70
25352;DHT22;13304;48.464;8.712;2022-09-03T01:29:27;20.10;75.20
25352;DHT22;13304;48.464;8.712;2022-09-03T01:32:14;20.20;74.80
25352;DHT22;13304;48.464;8.712;2022-09-03T01:50:57;20.00;75.10
25352;DHT22;13304;48.464;8.712;2022-09-03T01:53:54;20.00;74.80
25352;DHT22;13304;48.464;8.712;2022-09-03T01:59:39;19.90;75.30
25352;DHT22;13304;48.464;8.712;2022-09-03T02:02:17;19.90;75.40
25352;DHT22;13304;48.464;8.712;2022-09-03T02:07:41;19.90;75.70
25352;DHT22;13304;48.464;8.712;2022-09-03T02:10:11;20.00;75.30
25352;DHT22;13304;48.464;8.712;2022-09-03T02:12:43;19.90;75.30
25352;DHT22;13304;48.464;8.712;2022-09-03T02:15:16;19.90;75.40
25352;DHT22;13304;48.464;8.712;2022-09-03T02:17:44;19.90;75.50
25352;DHT22;13304;48.464;8.712;2022-09-03T02:20:16;19.90;75.40
25352;DHT22;13304;48.464;8.712;2022-09-03T02:22:46;19.90;75.50
25352;DHT22;13304;48.464;8.712;2022-09-03T02:25:13;19.80;75.50
25352;DHT22;13304;48.464;8.712;2022-09-03T02:27:38;19.80;75.60
25352;DHT22;13304;48.464;8.712;2022-09-03T02:30:05;19.80;75.50
25352;DHT22;13304;48.464;8.712;2022-09-03T02:32:32;19.80;75.50
25352;DHT22;13304;48.464;8.712;2022-09-03T02:34:58;19.80;75.40
25352;DHT22;13304;48.464;8.712;2022-09-03T02:37:24;19.70;75.30
25352;DHT22;13304;48.464;8.712;2022-09-03T02:39:53;19.70;75.40
25352;DHT22;13304;48.464;8.712;2022-09-03T02:42:19;19.70;75.50
25352;DHT22;13304;48.464;8.712;2022-09-03T02:44:54;19.70;75.70
25352;DHT22;13304;48.464;8.712;2022-09-03T02:47:22;19.60;76.00
25352;DHT22;13304;48.464;8.712;2022-09-03T02:49:50;19.60;75.90
25352;DHT22;13304;48.464;8.712;2022-09-03T02:52:15;19.70;76.00
25352;DHT22;13304;48.464;8.712;2022-09-03T02:54:42;19.70;76.10
25352;DHT22;13304;48.464;8.712;2022-09-03T02:57:12;19.70;76.20
25352;DHT22;13304;48.464;8.712;2022-09-03T02:59:38;19.60;76.30
25352;DHT22;13304;48.464;8.712;2022-09-03T03:02:06;19.70;76.40
25352;DHT22;13304;48.464;8.712;2022-09-03T03:04:32;19.60;76.30
25352;DHT22;13304;48.464;8.712;2022-09-03T03:06:58;19.60;76.40
25352;DHT22;13304;48.464;8.712;2022-09-03T03:09:24;19.60;76.50
25352;DHT22;13304;48.464;8.712;2022-09-03T03:11:50;19.60;76.50
25352;DHT22;13304;48.464;8.712;2022-09-03T03:14:17;19.60;76.60
25352;DHT22;13304;48.464;8.712;2022-09-03T03:16:43;19.60;76.60
25352;DHT22;13304;48.464;8.712;2022-09-03T03:19:09;19.60;76.70
25352;DHT22;13304;48.464;8.712;2022-09-03T03:21:35;19.60;76.80
25352;DHT22;13304;48.464;8.712;2022-09-03T03:24:01;19.60;76.90
25352;DHT22;13304;48.464;8.712;2022-09-03T03:26:27;19.60;76.90
25352;DHT22;13304;48.464;8.712;2022-09-03T03:28:59;19.60;76.90
25352;DHT22;13304;48.464;8.712;2022-09-03T03:31:26;19.60;77.00
25352;DHT22;13304;48.464;8.712;2022-09-03T03:34:00;19.60;77.00
25352;DHT22;13304;48.464;8.712;2022-09-03T03:36:29;19.60;77.10
25352;DHT22;13304;48.464;8.712;2022-09-03T03:38:57;19.60;76.90
25352;DHT22;13304;48.464;8.712;2022-09-03T03:41:26;19.60;77.00
25352;DHT22;13304;48.464;8.712;2022-09-03T03:43:56;19.60;77.00
25352;DHT22;13304;48.464;8.712;2022-09-03T03:46:23;19.50;77.00
25352;DHT22;13304;48.464;8.712;2022-09-03T03:48:52;19.50;76.90
25352;DHT22;13304;48.464;8.712;2022-09-03T03:51:18;19.50;77.00
25352;DHT22;13304;48.464;8.712;2022-09-03T03:53:45;19.50;76.90
25352;DHT22;13304;48.464;8.712;2022-09-03T03:56:13;19.50;77.00
25352;DHT22;13304;48.464;8.712;2022-09-03T03:58:40;19.40;77.10
25352;DHT22;13304;48.464;8.712;2022-09-03T04:01:12;19.40;77.10
25352;DHT22;13304;48.464;8.712;2022-09-03T04:03:38;19.40;77.30
25352;DHT22;13304;48.464;8.712;2022-09-03T04:06:05;19.40;77.30
25352;DHT22;13304;48.464;8.712;2022-09-03T04:08:34;19.40;77.40
25352;DHT22;13304;48.464;8.712;2022-09-03T04:11:05;19.40;77.50
25352;DHT22;13304;48.464;8.712;2022-09-03T04:13:34;19.40;77.50
25352;DHT22;13304;48.464;8.712;2022-09-03T04:16:15;19.40;77.60
25352;DHT22;13304;48.464;8.712;2022-09-03T04:18:42;19.40;77.80
25352;DHT22;13304;48.464;8.712;2022-09-03T04:21:13;19.40;77.60
25352;DHT22;13304;48.464;8.712;2022-09-03T04:23:41;19.40;77.90
25352;DHT22;13304;48.464;8.712;2022-09-03T04:26:09;19.40;77.70
25352;DHT22;13304;48.464;8.712;2022-09-03T04:28:35;19.40;77.80
25352;DHT22;13304;48.464;8.712;2022-09-03T04:31:04;19.40;77.70
25352;DHT22;13304;48.464;8.712;2022-09-03T04:33:31;19.50;78.00
25352;DHT22;13304;48.464;8.712;2022-09-03T04:36:06;19.50;78.00
25352;DHT22;13304;48.464;8.712;2022-09-03T04:38:34;19.40;78.10
25352;DHT22;13304;48.464;8.712;2022-09-03T04:41:00;19.50;78.00
25352;DHT22;13304;48.464;8.712;2022-09-03T04:43:27;19.50;78.00
25352;DHT22;13304;48.464;8.712;2022-09-03T04:45:58;19.50;78.10
25352;DHT22;13304;48.464;8.712;2022-09-03T04:48:28;19.50;78.20
25352;DHT22;13304;48.464;8.712;2022-09-03T04:51:00;19.50;78.20
25352;DHT22;13304;48.464;8.712;2022-09-03T04:53:30;19.50;78.20
25352;DHT22;13304;48.464;8.712;2022-09-03T04:55:56;19.50;78.30
25352;DHT22;13304;48.464;8.712;2022-09-03T04:58:22;19.50;78.40
25352;DHT22;13304;48.464;8.712;2022-09-03T05:00:48;19.50;78.40
25352;DHT22;13304;48.464;8.712;2022-09-03T05:03:14;19.50;78.50
25352;DHT22;13304;48.464;8.712;2022-09-03T05:05:40;19.60;78.50
25352;DHT22;13304;48.464;8.712;2022-09-03T05:08:08;19.60;78.50
25352;DHT22;13304;48.464;8.712;2022-09-03T05:10:34;19.60;78.40
25352;DHT22;13304;48.464;8.712;2022-09-03T05:13:04;19.60;78.50
25352;DHT22;13304;48.464;8.712;2022-09-03T05:15:31;19.60;78.50
25352;DHT22;13304;48.464;8.712;2022-09-03T05:18:01;19.60;78.40
25352;DHT22;13304;48.464;8.712;2022-09-03T05:20:28;19.60;78.50
25352;DHT22;13304;48.464;8.712;2022-09-03T05:22:55;19.60;78.40
25352;DHT22;13304;48.464;8.712;2022-09-03T05:25:23;19.60;78.50
25352;DHT22;13304;48.464;8.712;2022-09-03T05:27:49;19.60;78.60
25352;DHT22;13304;48.464;8.712;2022-09-03T05:30:16;19.60;78.60
25352;DHT22;13304;48.464;8.712;2022-09-03T05:32:41;19.60;78.60
25352;DHT22;13304;48.464;8.712;2022-09-03T05:35:08;19.60;78.70
25352;DHT22;13304;48.464;8.712;2022-09-03T05:37:35;19.60;78.90
25352;DHT22;13304;48.464;8.712;2022-09-03T05:40:02;19.60;78.90
25352;DHT22;13304;48.464;8.712;2022-09-03T05:42:31;19.60;78.80
25352;DHT22;13304;48.464;8.712;2022-09-03T05:45:05;19.60;78.80
25352;DHT22;13304;48.464;8.712;2022-09-03T05:47:34;19.60;79.00
25352;DHT22;13304;48.464;8.712;2022-09-03T05:50:02;19.70;78.90
25352;DHT22;13304;48.464;8.712;2022-09-03T05:52:28;19.70;78.90
25352;DHT22;13304;48.464;8.712;2022-09-03T05:54:53;19.70;78.90
25352;DHT22;13304;48.464;8.712;2022-09-03T05:57:19;19.70;78.80
25352;DHT22;13304;48.464;8.712;2022-09-03T05:59:45;19.70;78.80
25352;DHT22;13304;48.464;8.712;2022-09-03T06:02:11;19.70;78.80
25352;DHT22;13304;48.464;8.712;2022-09-03T06:04:37;19.70;78.80
25352;DHT22;13304;48.464;8.712;2022-09-03T06:07:05;19.70;78.80
25352;DHT22;13304;48.464;8.712;2022-09-03T06:09:31;19.80;78.90
25352;DHT22;13304;48.464;8.712;2022-09-03T06:11:57;19.80;78.90
25352;DHT22;13304;48.464;8.712;2022-09-03T06:14:22;19.80;79.00
25352;DHT22;13304;48.464;8.712;2022-09-03T06:16:49;19.80;79.00
25352;DHT22;13304;48.464;8.712;2022-09-03T06:19:18;19.80;79.00
25352;DHT22;13304;48.464;8.712;2022-09-03T06:21:45;19.80;79.20
25352;DHT22;13304;48.464;8.712;2022-09-03T06:24:18;19.80;79.20
25352;DHT22;13304;48.464;8.712;2022-09-03T06:26:44;19.80;79.30
25352;DHT22;13304;48.464;8.712;2022-09-03T06:29:11;19.80;79.30
25352;DHT22;13304;48.464;8.712;2022-09-03T06:31:37;19.90;79.30
25352;DHT22;13304;48.464;8.712;2022-09-03T06:34:03;19.90;79.20
25352;DHT22;13304;48.464;8.712;2022-09-03T06:36:32;19.90;79.20
25352;DHT22;13304;48.464;8.712;2022-09-03T06:39:00;19.90;79.10
25352;DHT22;13304;48.464;8.712;2022-09-03T06:41:29;19.90;79.00
25352;DHT22;13304;48.464;8.712;2022-09-03T06:43:59;19.90;79.10
25352;DHT22;13304;48.464;8.712;2022-09-03T06:46:33;19.90;78.80
25352;DHT22;13304;48.464;8.712;2022-09-03T06:48:59;19.90;78.80
25352;DHT22;13304;48.464;8.712;2022-09-03T06:51:27;19.90;78.70
25352;DHT22;13304;48.464;8.712;2022-09-03T06:53:59;19.90;78.80
25352;DHT22;13304;48.464;8.712;2022-09-03T06:56:25;19.90;78.90
25352;DHT22;13304;48.464;8.712;2022-09-03T06:58:56;19.90;78.80
25352;DHT22;13304;48.464;8.712;2022-09-03T07:01:27;19.90;79.00
25352;DHT22;13304;48.464;8.712;2022-09-03T07:04:05;19.90;79.10
25352;DHT22;13304;48.464;8.712;2022-09-03T07:06:38;19.90;79.00
25352;DHT22;13304;48.464;8.712;2022-09-03T07:09:09;19.90;79.40
25352;DHT22;13304;48.464;8.712;2022-09-03T07:11:36;19.90;79.80
25352;DHT22;13304;48.464;8.712;2022-09-03T07:14:04;19.90;79.90
25352;DHT22;13304;48.464;8.712;2022-09-03T07:16:33;20.00;80.20
25352;DHT22;13304;48.464;8.712;2022-09-03T07:19:00;20.00;80.30
25352;DHT22;13304;48.464;8.712;2022-09-03T07:21:28;20.10;80.20
25352;DHT22;13304;48.464;8.712;2022-09-03T07:23:55;20.10;80.70
25352;DHT22;13304;48.464;8.712;2022-09-03T07:26:23;20.20;80.50
25352;DHT22;13304;48.464;8.712;2022-09-03T07:28:50;20.30;80.40
25352;DHT22;13304;48.464;8.712;2022-09-03T07:31:38;20.30;80.10
25352;DHT22;13304;48.464;8.712;2022-09-03T07:34:06;20.40;79.70
25352;DHT22;13304;48.464;8.712;2022-09-03T07:36:44;20.50;79.70
25352;DHT22;13304;48.464;8.712;2022-09-03T07:39:13;20.50;79.20
25352;DHT22;13304;48.464;8.712;2022-09-03T07:41:41;20.60;79.80
25352;DHT22;13304;48.464;8.712;2022-09-03T07:44:14;20.70;78.70
25352;DHT22;13304;48.464;8.712;2022-09-03T07:46:40;20.80;78.80
25352;DHT22;13304;48.464;8.712;2022-09-03T07:49:07;20.90;78.50
25352;DHT22;13304;48.464;8.712;2022-09-03T07:51:36;21.00;78.20
25352;DHT22;13304;48.464;8.712;2022-09-03T07:54:07;21.00;78.00
25352;DHT22;13304;48.464;8.712;2022-09-03T07:56:38;21.10;77.80
25352;DHT22;13304;48.464;8.712;2022-09-03T07:59:05;21.20;77.60
25352;DHT22;13304;48.464;8.712;2022-09-03T08:01:32;21.20;77.40
25352;DHT22;13304;48.464;8.712;2022-09-03T08:03:58;21.30;77.20
25352;DHT22;13304;48.464;8.712;2022-09-03T08:06:27;21.30;77.00
25352;DHT22;13304;48.464;8.712;2022-09-03T08:08:57;21.40;76.70
25352;DHT22;13304;48.464;8.712;2022-09-03T08:11:25;21.40;76.20
25352;DHT22;13304;48.464;8.712;2022-09-03T08:14:00;21.50;76.30
25352;DHT22;13304;48.464;8.712;2022-09-03T08:16:31;21.50;75.80
25352;DHT22;13304;48.464;8.712;2022-09-03T08:18:57;21.50;75.70
25352;DHT22;13304;48.464;8.712;2022-09-03T08:21:25;21.60;75.60
25352;DHT22;13304;48.464;8.712;2022-09-03T08:23:53;21.60;75.70
25352;DHT22;13304;48.464;8.712;2022-09-03T08:26:20;21.60;75.30
25352;DHT22;13304;48.464;8.712;2022-09-03T08:28:47;21.60;75.30
25352;DHT22;13304;48.464;8.712;2022-09-03T08:31:16;21.70;75.00
25352;DHT22;13304;48.464;8.712;2022-09-03T08:33:46;21.70;74.80
25352;DHT22;13304;48.464;8.712;2022-09-03T08:36:13;21.70;74.90
25352;DHT22;13304;48.464;8.712;2022-09-03T08:38:41;21.60;75.60
25352;DHT22;13304;48.464;8.712;2022-09-03T08:41:17;21.80;75.30
25352;DHT22;13304;48.464;8.712;2022-09-03T08:49:26;22.00;74.50
25352;DHT22;13304;48.464;8.712;2022-09-03T08:51:55;22.10;74.60
25352;DHT22;13304;48.464;8.712;2022-09-03T08:54:31;22.20;74.70
25352;DHT22;13304;48.464;8.712;2022-09-03T08:57:01;22.20;73.90
25352;DHT22;13304;48.464;8.712;2022-09-03T08:59:31;22.30;73.90
25352;DHT22;13304;48.464;8.712;2022-09-03T09:07:29;22.50;74.00
25352;DHT22;13304;48.464;8.712;2022-09-03T09:10:11;22.60;72.80
25352;DHT22;13304;48.464;8.712;2022-09-03T09:23:34;23.10;71.70
25352;DHT22;13304;48.464;8.712;2022-09-03T09:26:07;23.10;70.80
25352;DHT22;13304;48.464;8.712;2022-09-03T09:28:37;23.20;70.50
25352;DHT22;13304;48.464;8.712;2022-09-03T09:31:05;23.30;69.80
25352;DHT22;13304;48.464;8.712;2022-09-03T09:33:33;23.30;69.30
25352;DHT22;13304;48.464;8.712;2022-09-03T09:36:07;23.30;69.20
25352;DHT22;13304;48.464;8.712;2022-09-03T09:38:36;23.30;68.60
25352;DHT22;13304;48.464;8.712;2022-09-03T09:41:16;23.40;69.00
25352;DHT22;13304;48.464;8.712;2022-09-03T09:43:59;23.40;68.40
25352;DHT22;13304;48.464;8.712;2022-09-03T09:46:37;23.40;68.20
25352;DHT22;13304;48.464;8.712;2022-09-03T09:52:24;23.40;67.10
25352;DHT22;13304;48.464;8.712;2022-09-03T09:55:04;23.50;67.90
25352;DHT22;13304;48.464;8.712;2022-09-03T09:57:32;23.50;67.90
25352;DHT22;13304;48.464;8.712;2022-09-03T10:00:16;23.60;68.90
25352;DHT22;13304;48.464;8.712;2022-09-03T10:02:53;23.60;66.00
25352;DHT22;13304;48.464;8.712;2022-09-03T10:05:26;23.60;66.60
25352;DHT22;13304;48.464;8.712;2022-09-03T10:07:59;23.70;67.40
25352;DHT22;13304;48.464;8.712;2022-09-03T10:10:26;23.80;67.00
25352;DHT22;13304;48.464;8.712;2022-09-03T10:13:02;23.80;66.20
25352;DHT22;13304;48.464;8.712;2022-09-03T10:15:38;23.80;66.50
25352;DHT22;13304;48.464;8.712;2022-09-03T10:18:33;23.90;66.10
25352;DHT22;13304;48.464;8.712;2022-09-03T10:21:14;23.90;65.50
25352;DHT22;13304;48.464;8.712;2022-09-03T10:26:22;24.00;66.20
25352;DHT22;13304;48.464;8.712;2022-09-03T10:29:00;24.10;66.60
25352;DHT22;13304;48.464;8.712;2022-09-03T10:34:02;24.10;65.80
25352;DHT22;13304;48.464;8.712;2022-09-03T10:53:43;24.00;61.30
25352;DHT22;13304;48.464;8.712;2022-09-03T11:04:55;23.70;63.30
25352;DHT22;13304;48.464;8.712;2022-09-03T11:07:33;23.70;62.80
25352;DHT22;13304;48.464;8.712;2022-09-03T11:12:37;23.50;59.10
25352;DHT22;13304;48.464;8.712;2022-09-03T11:15:09;23.40;58.70
25352;DHT22;13304;48.464;8.712;2022-09-03T11:18:21;23.30;58.70
25352;DHT22;13304;48.464;8.712;2022-09-03T11:20:50;23.20;59.10
25352;DHT22;13304;48.464;8.712;2022-09-03T11:23:20;23.10;59.60
25352;DHT22;13304;48.464;8.712;2022-09-03T11:26:00;23.00;59.80
25352;DHT22;13304;48.464;8.712;2022-09-03T11:28:47;22.90;60.50
25352;DHT22;13304;48.464;8.712;2022-09-03T11:32:00;22.70;61.40
25352;DHT22;13304;48.464;8.712;2022-09-03T11:34:43;22.50;63.30
25352;DHT22;13304;48.464;8.712;2022-09-03T11:37:19;22.50;64.20
25352;DHT22;13304;48.464;8.712;2022-09-03T11:39:55;22.30;65.60
25352;DHT22;13304;48.464;8.712;2022-09-03T11:44:59;22.10;67.00
25352;DHT22;13304;48.464;8.712;2022-09-03T11:47:42;22.00;67.80
25352;DHT22;13304;48.464;8.712;2022-09-03T11:50:26;21.80;69.60
25352;DHT22;13304;48.464;8.712;2022-09-03T11:58:31;21.50;71.20
25352;DHT22;13304;48.464;8.712;2022-09-03T12:00:58;21.40;72.70
25352;DHT22;13304;48.464;8.712;2022-09-03T12:03:29;21.30;72.20
25352;DHT22;13304;48.464;8.712;2022-09-03T12:06:10;21.30;71.90
25352;DHT22;13304;48.464;8.712;2022-09-03T12:11:43;21.20;74.10
25352;DHT22;13304;48.464;8.712;2022-09-03T12:14:35;21.10;74.10
25352;DHT22;13304;48.464;8.712;2022-09-03T12:20:12;21.10;74.80
25352;DHT22;13304;48.464;8.712;2022-09-03T12:22:38;21.10;75.50
25352;DHT22;13304;48.464;8.712;2022-09-03T12:25:17;21.20;76.10
25352;DHT22;13304;48.464;8.712;2022-09-03T12:27:44;21.20;76.90
25352;DHT22;13304;48.464;8.712;2022-09-03T12:30:20;21.20;76.50
25352;DHT22;13304;48.464;8.712;2022-09-03T12:32:47;21.30;77.20
25352;DHT22;13304;48.464;8.712;2022-09-03T12:35:19;21.40;77.10
25352;DHT22;13304;48.464;8.712;2022-09-03T12:37:46;21.50;77.40
25352;DHT22;13304;48.464;8.712;2022-09-03T12:40:20;21.60;77.70
25352;DHT22;13304;48.464;8.712;2022-09-03T12:42:47;21.60;78.40
25352;DHT22;13304;48.464;8.712;2022-09-03T12:45:20;21.80;77.80
25352;DHT22;13304;48.464;8.712;2022-09-03T12:47:52;21.90;77.50
25352;DHT22;13304;48.464;8.712;2022-09-03T12:50:22;22.00;76.20
25352;DHT22;13304;48.464;8.712;2022-09-03T12:52:54;22.10;75.30
25352;DHT22;13304;48.464;8.712;2022-09-03T12:55:51;22.20;74.70
25352;DHT22;13304;48.464;8.712;2022-09-03T13:01:15;22.40;74.60
25352;DHT22;13304;48.464;8.712;2022-09-03T13:04:04;22.50;75.10
25352;DHT22;13304;48.464;8.712;2022-09-03T13:09:18;22.60;73.60
25352;DHT22;13304;48.464;8.712;2022-09-03T13:11:45;22.70;73.80
25352;DHT22;13304;48.464;8.712;2022-09-03T13:14:13;22.70;73.50
25352;DHT22;13304;48.464;8.712;2022-09-03T13:16:49;22.80;73.70
25352;DHT22;13304;48.464;8.712;2022-09-03T13:30:31;23.20;72.50
25352;DHT22;13304;48.464;8.712;2022-09-03T13:35:43;23.40;71.50
25352;DHT22;13304;48.464;8.712;2022-09-03T13:38:20;23.50;71.20
25352;DHT22;13304;48.464;8.712;2022-09-03T13:44:20;23.60;70.00
25352;DHT22;13304;48.464;8.712;2022-09-03T13:52:50;23.70;69.00
25352;DHT22;13304;48.464;8.712;2022-09-03T14:03:52;23.70;69.10
25352;DHT22;13304;48.464;8.712;2022-09-03T14:12:18;23.70;69.00
25352;DHT22;13304;48.464;8.712;2022-09-03T14:20:24;23.80;68.40
25352;DHT22;13304;48.464;8.712;2022-09-03T14:23:06;23.80;68.10
25352;DHT22;13304;48.464;8.712;2022-09-03T14:25:35;23.80;68.60
25352;DHT22;13304;48.464;8.712;2022-09-03T14:28:39;23.80;68.60
25352;DHT22;13304;48.464;8.712;2022-09-03T14:39:46;23.80;67.90
25352;DHT22;13304;48.464;8.712;2022-09-03T14:54:01;23.90;68.10
25352;DHT22;13304;48.464;8.712;2022-09-03T14:56:58;23.80;68.10
25352;DHT22;13304;48.464;8.712;2022-09-03T14:59:40;23.90;67.50
25352;DHT22;13304;48.464;8.712;2022-09-03T15:10:56;24.00;66.70
25352;DHT22;13304;48.464;8.712;2022-09-03T15:13:33;24.00;65.90
25352;DHT22;13304;48.464;8.712;2022-09-03T15:18:52;24.20;66.10
25352;DHT22;13304;48.464;8.712;2022-09-03T15:29:46;24.30;62.50
25352;DHT22;13304;48.464;8.712;2022-09-03T15:35:14;24.20;60.80
25352;DHT22;13304;48.464;8.712;2022-09-03T15:37:51;24.20;60.80
25352;DHT22;13304;48.464;8.712;2022-09-03T15:40:33;24.10;60.70
25352;DHT22;13304;48.464;8.712;2022-09-03T15:53:44;24.20;59.60
25352;DHT22;13304;48.464;8.712;2022-09-03T16:01:35;24.20;59.40
25352;DHT22;13304;48.464;8.712;2022-09-03T16:06:59;24.30;59.10
25352;DHT22;13304;48.464;8.712;2022-09-03T16:09:53;24.20;58.40
25352;DHT22;13304;48.464;8.712;2022-09-03T16:15:12;24.20;58.40
25352;DHT22;13304;48.464;8.712;2022-09-03T16:20:51;24.10;58.20
25352;DHT22;13304;48.464;8.712;2022-09-03T16:23:41;24.00;58.40
25352;DHT22;13304;48.464;8.712;2022-09-03T16:26:41;24.00;58.70
25352;DHT22;13304;48.464;8.712;2022-09-03T16:29:12;23.90;58.90
25352;DHT22;13304;48.464;8.712;2022-09-03T16:37:33;23.90;60.00
25352;DHT22;13304;48.464;8.712;2022-09-03T16:40:11;23.80;60.30
25352;DHT22;13304;48.464;8.712;2022-09-03T16:45:29;23.80;60.00
25352;DHT22;13304;48.464;8.712;2022-09-03T16:50:47;23.90;59.70
25352;DHT22;13304;48.464;8.712;2022-09-03T16:58:56;23.80;59.40
25352;DHT22;13304;48.464;8.712;2022-09-03T17:02:01;23.80;59.40
25352;DHT22;13304;48.464;8.712;2022-09-03T17:08:24;23.70;59.30
25352;DHT22;13304;48.464;8.712;2022-09-03T17:16:38;23.70;60.00
25352;DHT22;13304;48.464;8.712;2022-09-03T17:24:52;23.50;60.30
25352;DHT22;13304;48.464;8.712;2022-09-03T17:27:54;23.40;61.30
25352;DHT22;13304;48.464;8.712;2022-09-03T17:36:14;23.30;61.40
25352;DHT22;13304;48.464;8.712;2022-09-03T17:39:05;23.30;61.80
25352;DHT22;13304;48.464;8.712;2022-09-03T17:50:24;23.00;63.00
25352;DHT22;13304;48.464;8.712;2022-09-03T17:52:57;22.90;63.50
25352;DHT22;13304;48.464;8.712;2022-09-03T17:55:35;22.90;63.50
25352;DHT22;13304;48.464;8.712;2022-09-03T18:06:45;22.70;65.30
25352;DHT22;13304;48.464;8.712;2022-09-03T18:11:52;22.60;65.70
25352;DHT22;13304;48.464;8.712;2022-09-03T18:14:48;22.50;66.60
25352;DHT22;13304;48.464;8.712;2022-09-03T18:20:05;22.40;66.80
25352;DHT22;13304;48.464;8.712;2022-09-03T18:23:04;22.30;67.30
25352;DHT22;13304;48.464;8.712;2022-09-03T18:25:53;22.30;67.40
25352;DHT22;13304;48.464;8.712;2022-09-03T18:29:02;22.10;67.30
25352;DHT22;13304;48.464;8.712;2022-09-03T18:31:45;22.20;67.40
25352;DHT22;13304;48.464;8.712;2022-09-03T18:34:32;22.10;67.50
25352;DHT22;13304;48.464;8.712;2022-09-03T18:37:27;22.00;68.00
25352;DHT22;13304;48.464;8.712;2022-09-03T18:40:25;22.00;68.60
25352;DHT22;13304;48.464;8.712;2022-09-03T18:43:33;21.90;68.80
25352;DHT22;13304;48.464;8.712;2022-09-03T18:46:37;21.80;69.00
25352;DHT22;13304;48.464;8.712;2022-09-03T18:49:46;21.80;69.30
25352;DHT22;13304;48.464;8.712;2022-09-03T18:53:01;21.70;69.40
25352;DHT22;13304;48.464;8.712;2022-09-03T19:01:44;21.60;69.50
25352;DHT22;13304;48.464;8.712;2022-09-03T19:05:10;21.60;69.50
25352;DHT22;13304;48.464;8.712;2022-09-03T19:14:33;21.40;70.10
25352;DHT22;13304;48.464;8.712;2022-09-03T19:20:38;21.30;70.80
25352;DHT22;13304;48.464;8.712;2022-09-03T19:23:24;21.30;71.10
25352;DHT22;13304;48.464;8.712;2022-09-03T19:26:22;21.30;70.80
25352;DHT22;13304;48.464;8.712;2022-09-03T19:29:40;21.20;71.30
25352;DHT22;13304;48.464;8.712;2022-09-03T19:36:02;21.20;71.30
25352;DHT22;13304;48.464;8.712;2022-09-03T19:39:11;21.20;71.20
25352;DHT22;13304;48.464;8.712;2022-09-03T19:45:22;21.20;71.20
25352;DHT22;13304;48.464;8.712;2022-09-03T19:48:35;21.20;71.60
25352;DHT22;13304;48.464;8.712;2022-09-03T19:51:20;21.20;71.30
25352;DHT22;13304;48.464;8.712;2022-09-03T19:54:09;21.20;71.30
25352;DHT22;13304;48.464;8.712;2022-09-03T19:56:58;21.10;71.30
25352;DHT22;13304;48.464;8.712;2022-09-03T19:59:43;21.10;71.40
25352;DHT22;13304;48.464;8.712;2022-09-03T20:02:28;21.00;71.40
25352;DHT22;13304;48.464;8.712;2022-09-03T20:05:31;21.10;71.10
25352;DHT22;13304;48.464;8.712;2022-09-03T20:08:15;21.00;71.90
25352;DHT22;13304;48.464;8.712;2022-09-03T20:11:01;21.00;71.50
25352;DHT22;13304;48.464;8.712;2022-09-03T20:13:28;21.00;71.70
25352;DHT22;13304;48.464;8.712;2022-09-03T20:16:30;20.90;71.80
25352;DHT22;13304;48.464;8.712;2022-09-03T20:19:11;20.90;72.30
25352;DHT22;13304;48.464;8.712;2022-09-03T20:24:59;20.90;72.80
25352;DHT22;13304;48.464;8.712;2022-09-03T20:30:34;20.80;72.90
25352;DHT22;13304;48.464;8.712;2022-09-03T20:35:58;20.80;73.00
25352;DHT22;13304;48.464;8.712;2022-09-03T20:38:48;20.80;73.00
25352;DHT22;13304;48.464;8.712;2022-09-03T20:41:22;20.80;73.00
25352;DHT22;13304;48.464;8.712;2022-09-03T20:55:19;20.70;72.70
25352;DHT22;13304;48.464;8.712;2022-09-03T20:57:57;20.70;72.90
25352;DHT22;13304;48.464;8.712;2022-09-03T21:00:44;20.70;73.20
25352;DHT22;13304;48.464;8.712;2022-09-03T21:03:20;20.70;73.00
25352;DHT22;13304;48.464;8.712;2022-09-03T21:09:00;20.60;73.20
25352;DHT22;13304;48.464;8.712;2022-09-03T21:11:38;20.60;73.50
25352;DHT22;13304;48.464;8.712;2022-09-03T21:14:46;20.60;73.40
25352;DHT22;13304;48.464;8.712;2022-09-03T21:17:30;20.50;73.60
25352;DHT22;13304;48.464;8.712;2022-09-03T21:23:04;20.50;73.50
25352;DHT22;13304;48.464;8.712;2022-09-03T21:25:37;20.40;73.70
25352;DHT22;13304;48.464;8.712;2022-09-03T21:28:11;20.40;73.50
25352;DHT22;13304;48.464;8.712;2022-09-03T21:30:41;20.40;73.60
25352;DHT22;13304;48.464;8.712;2022-09-03T21:33:33;20.40;73.50
25352;DHT22;13304;48.464;8.712;2022-09-03T21:39:12;20.30;73.90
25352;DHT22;13304;48.464;8.712;2022-09-03T21:44:18;20.30;74.20
25352;DHT22;13304;48.464;8.712;2022-09-03T21:47:03;20.20;74.30
25352;DHT22;13304;48.464;8.712;2022-09-03T21:52:16;20.10;74.50
25352;DHT22;13304;48.464;8.712;2022-09-03T21:54:44;20.10;74.30
25352;DHT22;13304;48.464;8.712;2022-09-03T21:57:33;20.10;74.30
25352;DHT22;13304;48.464;8.712;2022-09-03T22:00:16;20.00;74.70
25352;DHT22;13304;48.464;8.712;2022-09-03T22:02:43;20.00;74.90
25352;DHT22;13304;48.464;8.712;2022-09-03T22:05:11;20.00;74.80
25352;DHT22;13304;48.464;8.712;2022-09-03T22:10:48;19.90;75.10
25352;DHT22;13304;48.464;8.712;2022-09-03T22:13:34;19.90;75.60
25352;DHT22;13304;48.464;8.712;2022-09-03T22:16:22;19.90;75.30
25352;DHT22;13304;48.464;8.712;2022-09-03T22:18:50;19.90;75.50
25352;DHT22;13304;48.464;8.712;2022-09-03T22:21:27;19.90;75.90
25352;DHT22;13304;48.464;8.712;2022-09-03T22:24:16;19.90;75.30